^^
Lisbon, NH - Weather Station Historical Data
Daily Summary for October 29, 2021 Units:  English    Metric   Both
Daily Weekly Monthly Yearly
  High: Low: Average:
Temperature: 55.9 °F 29.4 °F 38.5 °F
Dew Point: 40.6 °F 29.4 °F 34.2 °F
Humidity: 100% 43.7% 87%
Wind Speed: 4.4mph 0mph 0.8mph
Wind Gust: 8mph - -
Wind- - SSE
Pressure: 30.04 in 29.88 in -
Precipitation: 0.00 in    
 
 
Tabular Data for October 29, 2021
Time Temperature Dew Point Pressure Wind Wind Speed Wind Gust Humidity Rainfall Rate (Hourly) solar
00:04 32.6 °F 32.6 °F 30.01 in Calm   1 mph 100% 0.00 in 0 W/m2
00:09 32.5 °F 32.5 °F 30.01 in NNE 0.2 mph 2 mph 100% 0.00 in 0 W/m2
00:14 32.5 °F 32.5 °F 30.01 in Calm   2 mph 100% 0.00 in 0 W/m2
00:19 32.5 °F 32.5 °F 30.01 in Calm     100% 0.00 in 0 W/m2
00:24 32.4 °F 32.4 °F 30.01 in NNE 0.2 mph 2 mph 100% 0.00 in 0 W/m2
00:29 32.4 °F 32.4 °F 30.01 in Calm     100% 0.00 in 0 W/m2
00:34 32.2 °F 32.2 °F 30.01 in Calm     100% 0.00 in 0 W/m2
00:39 32.2 °F 32.2 °F 30.01 in Calm     100% 0.00 in 0 W/m2
00:44 32.1 °F 32.1 °F 30.01 in North 0.3 mph 1 mph 100% 0.00 in 0 W/m2
00:49 31.9 °F 31.9 °F 30.01 in North 0.5 mph 1 mph 100% 0.00 in 0 W/m2
00:54 31.8 °F 31.8 °F 30.01 in Calm     100% 0.00 in 0 W/m2
00:59 31.8 °F 31.8 °F 30.01 in Calm   1 mph 100% 0.00 in 0 W/m2
01:04 31.7 °F 31.7 °F 30.01 in Calm     100% 0.00 in 0 W/m2
01:09 31.6 °F 31.6 °F 30.01 in Calm   1 mph 100% 0.00 in 0 W/m2
01:14 31.6 °F 31.6 °F 30.01 in Calm   1 mph 100% 0.00 in 0 W/m2
01:19 31.5 °F 31.5 °F 30.01 in Calm     100% 0.00 in 0 W/m2
01:24 31.5 °F 31.5 °F 30.01 in Calm     100% 0.00 in 0 W/m2
01:29 31.3 °F 31.3 °F 30.01 in North 0.1 mph 1 mph 100% 0.00 in 0 W/m2
01:34 31.4 °F 31.4 °F 30.01 in North 0.1 mph 1 mph 100% 0.00 in 0 W/m2
01:39 31.3 °F 31.3 °F 30.01 in Calm     100% 0.00 in 0 W/m2
01:44 31.3 °F 31.3 °F 30.01 in Calm     100% 0.00 in 0 W/m2
01:49 31.2 °F 31.2 °F 30.01 in Calm     100% 0.00 in 0 W/m2
01:54 31.2 °F 31.2 °F 30.01 in Calm     100% 0.00 in 0 W/m2
01:59 31 °F 31 °F 30.01 in Calm     100% 0.00 in 0 W/m2
02:04 31 °F 31 °F 30.01 in Calm     100% 0.00 in 0 W/m2
02:09 30.9 °F 30.9 °F 30.01 in Calm   1 mph 100% 0.00 in 0 W/m2
02:14 30.8 °F 30.8 °F 30.02 in Calm   1 mph 100% 0.00 in 0 W/m2
02:19 30.8 °F 30.8 °F 30.02 in Calm     100% 0.00 in 0 W/m2
02:24 30.8 °F 30.8 °F 30.02 in Calm     100% 0.00 in 0 W/m2
02:29 30.8 °F 30.8 °F 30.02 in Calm   1 mph 100% 0.00 in 0 W/m2
02:34 30.8 °F 30.8 °F 30.02 in NNE 0.1 mph 1 mph 100% 0.00 in 0 W/m2
02:39 30.7 °F 30.7 °F 30.02 in Calm   1 mph 100% 0.00 in 0 W/m2
02:44 30.7 °F 30.7 °F 30.02 in NNE 0.1 mph 1 mph 100% 0.00 in 0 W/m2
02:49 30.7 °F 30.7 °F 30.02 in Calm     100% 0.00 in 0 W/m2
02:54 30.6 °F 30.6 °F 30.02 in Calm     100% 0.00 in 0 W/m2
02:59 30.6 °F 30.6 °F 30.02 in Calm     100% 0.00 in 0 W/m2
03:04 30.6 °F 30.6 °F 30.02 in Calm     100% 0.00 in 0 W/m2
03:09 30.5 °F 30.5 °F 30.02 in NNE 0.1 mph 1 mph 100% 0.00 in 0 W/m2
03:14 30.4 °F 30.4 °F 30.02 in Calm   1 mph 100% 0.00 in 0 W/m2
03:19 30.4 °F 30.4 °F 30.02 in NNE 0.1 mph 1 mph 100% 0.00 in 0 W/m2
03:24 30.4 °F 30.4 °F 30.02 in Calm     100% 0.00 in 0 W/m2
03:29 30.3 °F 30.3 °F 30.02 in Calm     100% 0.00 in 0 W/m2
03:34 30.3 °F 30.3 °F 30.01 in Calm     100% 0.00 in 0 W/m2
03:39 30.3 °F 30.3 °F 30.01 in Calm     100% 0.00 in 0 W/m2
03:44 30.2 °F 30.2 °F 30.01 in Calm     100% 0.00 in 0 W/m2
03:49 30.1 °F 30.1 °F 30.01 in Calm   1 mph 100% 0.00 in 0 W/m2
03:54 30 °F 30 °F 30.01 in NNE 0.1 mph 1 mph 100% 0.00 in 0 W/m2
03:59 29.9 °F 29.9 °F 30.01 in NNE 0.1 mph 1 mph 100% 0.00 in 0 W/m2
04:04 29.8 °F 29.8 °F 30.01 in Calm     100% 0.00 in 0 W/m2
04:09 29.8 °F 29.8 °F 30.01 in Calm     100% 0.00 in 0 W/m2
04:14 29.8 °F 29.8 °F 30.01 in Calm     100% 0.00 in 0 W/m2
04:19 29.8 °F 29.8 °F 30.01 in Calm     100% 0.00 in 0 W/m2
04:24 29.7 °F 29.7 °F 30.01 in Calm     100% 0.00 in 0 W/m2
04:29 29.7 °F 29.7 °F 30.01 in Calm     100% 0.00 in 0 W/m2
04:34 29.6 °F 29.6 °F 30.01 in Calm     100% 0.00 in 0 W/m2
04:39 29.5 °F 29.5 °F 30.01 in Calm     100% 0.00 in 0 W/m2
04:44 29.5 °F 29.5 °F 30.01 in North 0.2 mph 1 mph 100% 0.00 in 0 W/m2
04:49 29.5 °F 29.5 °F 30.01 in Calm   1 mph 100% 0.00 in 0 W/m2
04:54 29.4 °F 29.4 °F 30.01 in Calm     100% 0.00 in 0 W/m2
04:59 29.4 °F 29.4 °F 30.02 in Calm     100% 0.00 in 0 W/m2
05:04 29.4 °F 29.4 °F 30.02 in Calm     100% 0.00 in 0 W/m2
05:09 29.4 °F 29.4 °F 30.02 in North 0.3 mph 1 mph 100% 0.00 in 0 W/m2
05:14 29.4 °F 29.4 °F 30.02 in Calm   1 mph 100% 0.00 in 0 W/m2
05:19 29.5 °F 29.5 °F 30.02 in North 0.2 mph 1 mph 100% 0.00 in 0 W/m2
05:24 29.5 °F 29.5 °F 30.02 in North 0.4 mph 1 mph 100% 0.00 in 0 W/m2
05:29 29.5 °F 29.5 °F 30.02 in Calm   1 mph 100% 0.00 in 0 W/m2
05:34 29.5 °F 29.5 °F 30.02 in Calm     100% 0.00 in 0 W/m2
05:39 29.5 °F 29.5 °F 30.02 in Calm     100% 0.00 in 0 W/m2
05:44 29.4 °F 29.4 °F 30.02 in Calm     100% 0.00 in 0 W/m2
05:49 29.4 °F 29.4 °F 30.02 in Calm     100% 0.00 in 0 W/m2
05:54 29.4 °F 29.4 °F 30.02 in Calm     100% 0.00 in 0 W/m2
05:59 29.5 °F 29.5 °F 30.02 in North 0.4 mph 1 mph 100% 0.00 in 0 W/m2
06:04 29.5 °F 29.5 °F 30.02 in NNE 0.2 mph 1 mph 100% 0.00 in 0 W/m2
06:09 29.5 °F 29.5 °F 30.02 in Calm     100% 0.00 in 0 W/m2
06:14 29.5 °F 29.5 °F 30.02 in NNE 0.1 mph 1 mph 100% 0.00 in 0 W/m2
06:19 29.5 °F 29.5 °F 30.02 in NE 0.7 mph 2 mph 100% 0.00 in 0 W/m2
06:24 29.5 °F 29.5 °F 30.02 in NE 0.6 mph 2 mph 100% 0.00 in 0 W/m2
06:29 29.5 °F 29.5 °F 30.02 in Calm   1 mph 100% 0.00 in 0 W/m2
06:34 29.5 °F 29.5 °F 30.02 in Calm     100% 0.00 in 0 W/m2
06:39 29.5 °F 29.5 °F 30.02 in Calm     100% 0.00 in 0 W/m2
06:44 29.6 °F 29.6 °F 30.02 in NE 0.1 mph 1 mph 100% 0.00 in 0 W/m2
06:49 29.7 °F 29.7 °F 30.02 in Calm     100% 0.00 in 0 W/m2
06:54 29.7 °F 29.7 °F 30.02 in Calm     100% 0.00 in 0 W/m2
06:59 29.7 °F 29.7 °F 30.02 in Calm     100% 0.00 in 0 W/m2
07:04 29.8 °F 29.8 °F 30.02 in Calm     100% 0.00 in 0 W/m2
07:09 29.8 °F 29.8 °F 30.02 in Calm     100% 0.00 in 0 W/m2
07:14 29.8 °F 29.8 °F 30.03 in Calm     100% 0.00 in 0 W/m2
07:19 29.8 °F 29.8 °F 30.03 in Calm     100% 0.00 in 5 W/m2
07:24 29.8 °F 29.8 °F 30.03 in Calm     100% 0.00 in 5 W/m2
07:29 29.9 °F 29.9 °F 30.03 in Calm     100% 0.00 in 5 W/m2
07:34 30 °F 30 °F 30.03 in Calm   1 mph 100% 0.00 in 7 W/m2
07:39 30.1 °F 30.1 °F 30.03 in NE 0.7 mph 1 mph 100% 0.00 in 9 W/m2
07:44 30.1 °F 30.1 °F 30.03 in NE 0.9 mph 2 mph 100% 0.00 in 9 W/m2
07:49 30.1 °F 30.1 °F 30.03 in NE 0.3 mph 1 mph 100% 0.00 in 11 W/m2
07:54 30.1 °F 30.1 °F 30.03 in NE 0.3 mph 2 mph 100% 0.00 in 16 W/m2
07:59 30.1 °F 30.1 °F 30.03 in ENE 2.3 mph 5 mph 100% 0.00 in 25 W/m2
08:04 29.9 °F 29.9 °F 30.03 in ENE 2.8 mph 5 mph 100% 0.00 in 33 W/m2
08:09 29.7 °F 29.7 °F 30.03 in ENE 1.7 mph 3 mph 100% 0.00 in 33 W/m2
08:14 29.7 °F 29.7 °F 30.04 in ENE 2.2 mph 5 mph 100% 0.00 in 35 W/m2
08:19 29.7 °F 29.7 °F 30.04 in ENE 2.5 mph 5 mph 100% 0.00 in 42 W/m2
08:24 29.7 °F 29.7 °F 30.04 in ENE 2.7 mph 6 mph 100% 0.00 in 44 W/m2
08:29 29.7 °F 29.7 °F 30.04 in ENE 2.7 mph 5 mph 100% 0.00 in 39 W/m2
08:34 29.7 °F 29.7 °F 30.03 in ENE 1.9 mph 4 mph 100% 0.00 in 62 W/m2
08:39 29.8 °F 29.8 °F 30.03 in ENE 1.3 mph 3 mph 100% 0.00 in 77 W/m2
08:44 29.9 °F 29.9 °F 30.04 in ENE 2.4 mph 5 mph 100% 0.00 in 104 W/m2
08:49 30.2 °F 30.2 °F 30.04 in ENE 2.3 mph 5 mph 100% 0.00 in 104 W/m2
08:54 30.5 °F 30.5 °F 30.04 in ENE 2.6 mph 5 mph 100% 0.00 in 127 W/m2
08:59 31 °F 31 °F 30.04 in ENE 2.9 mph 5 mph 100% 0.00 in 313 W/m2
09:04 31.8 °F 31.8 °F 30.03 in ENE 2 mph 5 mph 100% 0.00 in 310 W/m2
09:09 32.5 °F 32.5 °F 30.03 in ENE 1.9 mph 4 mph 100% 0.00 in 294 W/m2
09:14 33 °F 33 °F 30.03 in ENE 2.1 mph 5 mph 100% 0.00 in 317 W/m2
09:19 33.2 °F 33.2 °F 30.03 in East 2.3 mph 3 mph 100% 0.00 in 318 W/m2
09:24 33 °F 33 °F 30.03 in ESE 1.6 mph 3 mph 100% 0.00 in 329 W/m2
09:29 33.1 °F 33.1 °F 30.03 in East 1.9 mph 3 mph 100% 0.00 in 336 W/m2
09:34 33.5 °F 33.5 °F 30.03 in East 1.6 mph 2 mph 100% 0.00 in 354 W/m2
09:39 34 °F 34 °F 30.03 in East 0.8 mph 2 mph 100% 0.00 in 370 W/m2
09:44 34.9 °F 34.9 °F 30.03 in SE 1.2 mph 2 mph 100% 0.00 in 384 W/m2
09:49 35.6 °F 35.6 °F 30.02 in East 0.8 mph 2 mph 100% 0.00 in 394 W/m2
09:54 36.2 °F 36.2 °F 30.02 in ESE 1.3 mph 3 mph 100% 0.00 in 405 W/m2
09:59 36.8 °F 36.8 °F 30.02 in East 1 mph 2 mph 100% 0.00 in 413 W/m2
10:04 37.3 °F 37.2 °F 30.01 in ESE 0.9 mph 2 mph 99.6% 0.00 in 426 W/m2
10:09 37.9 °F 37.6 °F 30.01 in SSW 1.3 mph 3 mph 98.7% 0.00 in 431 W/m2
10:14 38.4 °F 37.5 °F 30.01 in South 2 mph 4 mph 96.6% 0.00 in 443 W/m2
10:19 38.7 °F 37.3 °F 30.01 in SSW 1.6 mph 4 mph 94.7% 0.00 in 450 W/m2
10:24 38.9 °F 37.1 °F 30.01 in SSW 2.7 mph 5 mph 93.2% 0.00 in 459 W/m2
10:29 38.8 °F 36.6 °F 30.01 in South 1.9 mph 3 mph 91.8% 0.00 in 470 W/m2
10:34 39.1 °F 36.6 °F 30.01 in SSW 2.3 mph 5 mph 90.8% 0.00 in 479 W/m2
10:39 39.4 °F 36.6 °F 30.01 in SSW 2.5 mph 5 mph 89.6% 0.00 in 489 W/m2
10:44 40 °F 36.8 °F 30.01 in SSW 3.1 mph 6 mph 88.2% 0.00 in 494 W/m2
10:49 40.3 °F 36.7 °F 30.01 in SSW 3.4 mph 6 mph 86.8% 0.00 in 503 W/m2
10:54 40.5 °F 36.6 °F 30.01 in South 3.7 mph 6 mph 85.8% 0.00 in 512 W/m2
10:59 40.6 °F 36.5 °F 30.01 in SSW 2.1 mph 6 mph 85.2% 0.00 in 519 W/m2
11:04 41.2 °F 36.8 °F 30.00 in South 2 mph 5 mph 84.2% 0.00 in 523 W/m2
11:09 41.7 °F 37 °F 30.00 in South 1.7 mph 3 mph 83% 0.00 in 530 W/m2
11:14 42.4 °F 37.2 °F 30.00 in South 1.9 mph 3 mph 81.6% 0.00 in 538 W/m2
11:19 43 °F 37.5 °F 30.00 in SSW 2.9 mph 6 mph 80.6% 0.00 in 542 W/m2
11:24 43.5 °F 37.5 °F 30.00 in SSW 4 mph 7 mph 79.1% 0.00 in 545 W/m2
11:29 43.9 °F 37.6 °F 30.00 in SSW 3.9 mph 8 mph 78.3% 0.00 in 551 W/m2
11:34 44.1 °F 37.7 °F 30.00 in SSW 4.1 mph 8 mph 78% 0.00 in 552 W/m2
11:39 44.4 °F 37.9 °F 30.00 in SW 4.1 mph 7 mph 77.6% 0.00 in 558 W/m2
11:44 44.9 °F 37.8 °F 30.00 in SW 3.2 mph 7 mph 76.1% 0.00 in 563 W/m2
11:49 44.7 °F 37.5 °F 29.99 in SW 3.8 mph 6 mph 75.7% 0.00 in 565 W/m2
11:54 44.7 °F 37.5 °F 29.99 in SSW 2.9 mph 6 mph 75.8% 0.00 in 567 W/m2
11:59 44.8 °F 37.4 °F 29.99 in SSW 2.7 mph 6 mph 75.1% 0.00 in 568 W/m2
12:04 45.2 °F 37.6 °F 29.98 in SSW 3 mph 6 mph 74.6% 0.00 in 570 W/m2
12:09 45.8 °F 37.5 °F 29.98 in SSW 3.7 mph 7 mph 72.4% 0.00 in 572 W/m2
12:14 46.2 °F 37.7 °F 29.98 in SSW 3.6 mph 7 mph 71.9% 0.00 in 574 W/m2
12:19 46.6 °F 37.8 °F 29.98 in SW 2.6 mph 7 mph 71.3% 0.00 in 575 W/m2
12:24 47.2 °F 38 °F 29.98 in SSW 2.9 mph 6 mph 70.3% 0.00 in 575 W/m2
12:29 47.6 °F 38.2 °F 29.98 in SSW 2.3 mph 6 mph 69.5% 0.00 in 574 W/m2
12:34 48.2 °F 38.1 °F 29.97 in SSW 3.3 mph 6 mph 67.9% 0.00 in 574 W/m2
12:39 48.3 °F 38.1 °F 29.97 in South 2.3 mph 6 mph 67.5% 0.00 in 574 W/m2
12:44 48.7 °F 38.5 °F 29.97 in SSW 2.8 mph 6 mph 67.6% 0.00 in 574 W/m2
12:49 49.3 °F 38.6 °F 29.96 in SW 2.3 mph 5 mph 66.6% 0.00 in 570 W/m2
12:54 49.8 °F 38.1 °F 29.96 in SW 2.9 mph 6 mph 63.9% 0.00 in 567 W/m2
12:59 50.3 °F 38 °F 29.96 in SSW 2.3 mph 6 mph 62.5% 0.00 in 565 W/m2
13:04 50.3 °F 37.7 °F 29.95 in SSW 3.2 mph 6 mph 61.8% 0.00 in 561 W/m2
13:09 50.7 °F 38 °F 29.95 in SSW 3.5 mph 6 mph 61.6% 0.00 in 558 W/m2
13:14 51.3 °F 37.4 °F 29.95 in SSW 2.8 mph 6 mph 58.8% 0.00 in 554 W/m2
13:19 51.9 °F 37 °F 29.95 in SW 3.1 mph 7 mph 56.7% 0.00 in 549 W/m2
13:24 52.2 °F 36.5 °F 29.95 in SSW 3.4 mph 7 mph 54.8% 0.00 in 544 W/m2
13:29 52.5 °F 36.2 °F 29.95 in SSW 4.4 mph 7 mph 53.7% 0.00 in 540 W/m2
13:34 52.8 °F 36.1 °F 29.94 in SSW 3.3 mph 7 mph 52.8% 0.00 in 535 W/m2
13:39 52.9 °F 35.8 °F 29.94 in SSW 1.8 mph 5 mph 52.1% 0.00 in 528 W/m2
13:44 53.2 °F 36.5 °F 29.94 in SSW 2.2 mph 6 mph 52.9% 0.00 in 521 W/m2
13:49 53.6 °F 36.6 °F 29.93 in SSW 2.3 mph 6 mph 52.4% 0.00 in 514 W/m2
13:54 53.5 °F 36.5 °F 29.93 in SSW 2.6 mph 6 mph 52.4% 0.00 in 505 W/m2
13:59 53.6 °F 36 °F 29.93 in South 2.4 mph 6 mph 51.2% 0.00 in 498 W/m2
14:04 53.8 °F 36.2 °F 29.92 in South 1.7 mph 4 mph 51.3% 0.00 in 491 W/m2
14:09 54.1 °F 35.7 °F 29.92 in SSW 2.6 mph 6 mph 49.7% 0.00 in 482 W/m2
14:14 54.5 °F 36 °F 29.92 in SW 2.6 mph 6 mph 49.6% 0.00 in 473 W/m2
14:19 54.7 °F 35.8 °F 29.92 in SSE 1.5 mph 5 mph 48.6% 0.00 in 465 W/m2
14:24 54.5 °F 35.5 °F 29.92 in SSW 1.5 mph 3 mph 48.4% 0.00 in 454 W/m2
14:29 55 °F 34.6 °F 29.92 in SSW 2 mph 5 mph 46.1% 0.00 in 443 W/m2
14:34 55.3 °F 34.8 °F 29.91 in SW 2.6 mph 6 mph 45.9% 0.00 in 435 W/m2
14:39 55.6 °F 34.9 °F 29.91 in SSW 1.5 mph 5 mph 45.4% 0.00 in 424 W/m2
14:44 55.7 °F 34.9 °F 29.91 in ESE 0.6 mph 3 mph 45.3% 0.00 in 415 W/m2
14:49 55.7 °F 34.8 °F 29.91 in SSW 1.7 mph 4 mph 45.1% 0.00 in 405 W/m2
14:54 55.7 °F 34.5 °F 29.91 in ESE 0.8 mph 3 mph 44.6% 0.00 in 392 W/m2
14:59 55.9 °F 34.7 °F 29.91 in SSW 0.9 mph 3 mph 44.7% 0.00 in 380 W/m2
15:04 55.9 °F 34.1 °F 29.90 in SE 1.1 mph 2 mph 43.7% 0.00 in 223 W/m2
15:09 55.5 °F 34.3 °F 29.90 in East 0.9 mph 2 mph 44.7% 0.00 in 35 W/m2
15:14 55.4 °F 34.8 °F 29.90 in ENE 0.2 mph 1 mph 45.7% 0.00 in 65 W/m2
15:19 55.2 °F 35.3 °F 29.89 in SE 1.3 mph 2 mph 46.8% 0.00 in 33 W/m2
15:24 55 °F 34.8 °F 29.89 in ESE 0.8 mph 2 mph 46.3% 0.00 in 32 W/m2
15:29 54.8 °F 35 °F 29.89 in East 1 mph 2 mph 47% 0.00 in 32 W/m2
15:34 54.9 °F 34.9 °F 29.88 in Calm   2 mph 46.7% 0.00 in 35 W/m2
15:39 55 °F 34.2 °F 29.88 in ENE 0.2 mph 3 mph 45.3% 0.00 in 37 W/m2
15:44 55.1 °F 34.7 °F 29.88 in ENE 1.2 mph 4 mph 46% 0.00 in 32 W/m2
15:49 55.1 °F 35.6 °F 29.88 in East 0.7 mph 4 mph 47.6% 0.00 in 33 W/m2
15:54 55.1 °F 36.4 °F 29.88 in SSE 0.1 mph 2 mph 49.2% 0.00 in 56 W/m2
15:59 55.2 °F 39.8 °F 29.88 in Calm   1 mph 56.1% 0.00 in 28 W/m2
16:04 54.8 °F 39.9 °F 29.88 in South 0.2 mph 1 mph 56.9% 0.00 in 33 W/m2
16:09 54.4 °F 40.1 °F 29.88 in Calm     58.5% 0.00 in 26 W/m2
16:14 53.9 °F 40.4 °F 29.88 in WSW 0.7 mph 1 mph 60.1% 0.00 in 26 W/m2
16:19 53.4 °F 40.6 °F 29.88 in Calm   1 mph 61.9% 0.00 in 25 W/m2
16:24 52.9 °F 40.6 °F 29.88 in WSW 0.1 mph 1 mph 62.9% 0.00 in 25 W/m2
16:29 52.4 °F 40.1 °F 29.88 in WSW 0.7 mph 1 mph 62.8% 0.00 in 25 W/m2
16:34 51.8 °F 40.2 °F 29.88 in West 0.7 mph 2 mph 64.3% 0.00 in 23 W/m2
16:39 51.3 °F 39.8 °F 29.88 in West 0.6 mph 2 mph 64.6% 0.00 in 23 W/m2
16:44 50.8 °F 39.6 °F 29.88 in West 0.8 mph 2 mph 65.4% 0.00 in 19 W/m2
16:49 50.3 °F 39.7 °F 29.88 in West 0.7 mph 1 mph 66.8% 0.00 in 16 W/m2
16:54 49.8 °F 40.1 °F 29.88 in West 0.6 mph 1 mph 68.9% 0.00 in 16 W/m2
16:59 49.4 °F 40.4 °F 29.89 in West 0.5 mph 1 mph 70.9% 0.00 in 16 W/m2
17:04 49 °F 40 °F 29.89 in West 0.1 mph 1 mph 71% 0.00 in 14 W/m2
17:09 48.6 °F 40 °F 29.89 in West 0.3 mph 1 mph 72% 0.00 in 14 W/m2
17:14 48.2 °F 40.1 °F 29.89 in West 0.4 mph 1 mph 73.5% 0.00 in 12 W/m2
17:19 47.8 °F 40.2 °F 29.89 in West 0.6 mph 1 mph 74.7% 0.00 in 12 W/m2
17:24 47.3 °F 40.2 °F 29.89 in West 0.4 mph 1 mph 76% 0.00 in 11 W/m2
17:29 46.9 °F 40 °F 29.89 in West 0.6 mph 2 mph 76.7% 0.00 in 9 W/m2
17:34 46.4 °F 40 °F 29.89 in West 0.8 mph 1 mph 78.1% 0.00 in 9 W/m2
17:39 46.1 °F 40 °F 29.89 in West 0.3 mph 1 mph 79.3% 0.00 in 7 W/m2
17:44 45.7 °F 39.9 °F 29.90 in Calm   1 mph 80% 0.00 in 5 W/m2
17:49 45.3 °F 39.9 °F 29.90 in West 0.2 mph 1 mph 81% 0.00 in 5 W/m2
17:54 45 °F 39.8 °F 29.90 in West 0.2 mph 1 mph 82% 0.00 in 0 W/m2
17:59 44.7 °F 39.6 °F 29.90 in West 0.2 mph 1 mph 82.4% 0.00 in 0 W/m2
18:04 44.3 °F 39.5 °F 29.90 in West 0.3 mph 2 mph 83% 0.00 in 0 W/m2
18:09 44 °F 39.5 °F 29.90 in West 0.2 mph 1 mph 83.9% 0.00 in 0 W/m2
18:14 43.7 °F 39.4 °F 29.90 in WNW 0.8 mph 2 mph 84.7% 0.00 in 0 W/m2
18:19 43.3 °F 39.1 °F 29.90 in NW 0.1 mph 1 mph 85% 0.00 in 0 W/m2
18:24 43.1 °F 39.2 °F 29.90 in Calm     86% 0.00 in 0 W/m2
18:29 42.8 °F 38.9 °F 29.90 in NW 0.5 mph 2 mph 86% 0.00 in 0 W/m2
18:34 42.5 °F 38.8 °F 29.90 in NW 0.3 mph 2 mph 86.7% 0.00 in 0 W/m2
18:39 42.2 °F 38.6 °F 29.90 in NW 0.2 mph 1 mph 87% 0.00 in 0 W/m2
18:44 41.9 °F 38.3 °F 29.90 in Calm   1 mph 87% 0.00 in 0 W/m2
18:49 41.7 °F 38.3 °F 29.90 in Calm     87.7% 0.00 in 0 W/m2
18:54 41.4 °F 38.1 °F 29.90 in Calm   1 mph 88% 0.00 in 0 W/m2
18:59 41.2 °F 38 °F 29.92 in Calm     88.4% 0.00 in 0 W/m2
19:04 40.9 °F 37.9 °F 29.92 in Calm     89% 0.00 in 0 W/m2
19:09 40.7 °F 37.7 °F 29.92 in Calm     89% 0.00 in 0 W/m2
19:14 40.5 °F 37.5 °F 29.92 in Calm     89% 0.00 in 0 W/m2
19:19 40.4 °F 37.6 °F 29.92 in NW 0.3 mph 1 mph 89.7% 0.00 in 0 W/m2
19:24 40 °F 37.3 °F 29.92 in Calm     90% 0.00 in 0 W/m2
19:29 39.8 °F 37.1 °F 29.92 in Calm     90.2% 0.00 in 0 W/m2
19:34 39.5 °F 37.1 °F 29.92 in Calm     91% 0.00 in 0 W/m2
19:39 39.3 °F 36.9 °F 29.92 in Calm     91% 0.00 in 0 W/m2
19:44 39.1 °F 36.7 °F 29.92 in NW 0.2 mph 1 mph 91% 0.00 in 0 W/m2
19:49 38.8 °F 36.7 °F 29.92 in Calm     92% 0.00 in 0 W/m2
19:54 38.6 °F 36.5 °F 29.92 in Calm     92% 0.00 in 0 W/m2
19:59 38.5 °F 36.6 °F 29.92 in Calm     92.9% 0.00 in 0 W/m2
20:04 38.3 °F 36.4 °F 29.92 in Calm     93% 0.00 in 0 W/m2
20:09 38.1 °F 36.3 °F 29.92 in Calm     93% 0.00 in 0 W/m2
20:14 37.9 °F 36.1 °F 29.92 in Calm     93% 0.00 in 0 W/m2
20:19 37.8 °F 36.1 °F 29.92 in NW 0.1 mph 1 mph 93.4% 0.00 in 0 W/m2
20:24 37.7 °F 36.1 °F 29.92 in North 0.3 mph 1 mph 94% 0.00 in 0 W/m2
20:29 37.6 °F 36 °F 29.92 in Calm   1 mph 94% 0.00 in 0 W/m2
20:34 37.5 °F 36.2 °F 29.92 in North 0.1 mph 1 mph 94.9% 0.00 in 0 W/m2
20:39 37.4 °F 36.1 °F 29.92 in North 0.6 mph 2 mph 95% 0.00 in 0 W/m2
20:44 37.3 °F 36.3 °F 29.92 in North 0.5 mph 1 mph 95.9% 0.00 in 0 W/m2
20:49 37.4 °F 36.4 °F 29.91 in North 0.5 mph 1 mph 96% 0.00 in 0 W/m2
20:54 37.2 °F 36.2 °F 29.91 in North 0.3 mph 2 mph 96% 0.00 in 0 W/m2
20:59 37.1 °F 36 °F 29.92 in North 0.2 mph 2 mph 96% 0.00 in 0 W/m2
21:04 36.9 °F 35.9 °F 29.92 in Calm     96% 0.00 in 0 W/m2
21:09 36.7 °F 35.7 °F 29.92 in North 0.2 mph 1 mph 96% 0.00 in 0 W/m2
21:14 36.6 °F 35.5 °F 29.92 in North 0.1 mph 1 mph 96% 0.00 in 0 W/m2
21:19 36.5 °F 35.6 °F 29.91 in Calm     96.4% 0.00 in 0 W/m2
21:24 36.5 °F 35.7 °F 29.91 in North 0.1 mph 1 mph 97% 0.00 in 0 W/m2
21:29 36.3 °F 35.5 °F 29.91 in NNE 0.3 mph 2 mph 97% 0.00 in 0 W/m2
21:34 36.2 °F 35.5 °F 29.91 in North 0.6 mph 2 mph 97% 0.00 in 0 W/m2
21:39 36.2 °F 35.4 °F 29.91 in North 0.1 mph 2 mph 97% 0.00 in 0 W/m2
21:44 36 °F 35.2 °F 29.91 in NNE 0.5 mph 3 mph 97% 0.00 in 0 W/m2
21:49 35.8 °F 35.1 °F 29.90 in NNE 0.1 mph 1 mph 97% 0.00 in 0 W/m2
21:54 35.6 °F 34.8 °F 29.90 in Calm     97% 0.00 in 0 W/m2
21:59 35.4 °F 34.7 °F 29.91 in Calm     97% 0.00 in 0 W/m2
22:04 35.3 °F 34.7 °F 29.91 in Calm     97.7% 0.00 in 0 W/m2
22:09 35.2 °F 34.6 °F 29.91 in NNE 0.1 mph 1 mph 98% 0.00 in 0 W/m2
22:14 35 °F 34.5 °F 29.91 in Calm   1 mph 98% 0.00 in 0 W/m2
22:19 34.8 °F 34.3 °F 29.91 in Calm     98% 0.00 in 0 W/m2
22:24 34.7 °F 34.1 °F 29.91 in Calm     98% 0.00 in 0 W/m2
22:29 34.5 °F 34 °F 29.91 in NNE 0.6 mph 2 mph 98% 0.00 in 0 W/m2
22:34 34.3 °F 33.8 °F 29.91 in NNE 0.2 mph 1 mph 98% 0.00 in 0 W/m2
22:39 34.1 °F 33.6 °F 29.91 in Calm   1 mph 98% 0.00 in 0 W/m2
22:44 34.1 °F 33.6 °F 29.91 in Calm     98% 0.00 in 0 W/m2
22:49 34 °F 33.5 °F 29.91 in Calm     98.2% 0.00 in 0 W/m2
22:54 33.8 °F 33.4 °F 29.91 in Calm     98.4% 0.00 in 0 W/m2
22:59 33.7 °F 33.5 °F 29.91 in Calm     99% 0.00 in 0 W/m2
23:04 33.6 °F 33.3 °F 29.91 in Calm     99% 0.00 in 0 W/m2
23:09 33.5 °F 33.2 °F 29.91 in Calm     99% 0.00 in 0 W/m2
23:14 33.4 °F 33.2 °F 29.91 in Calm     99% 0.00 in 0 W/m2
23:19 33.3 °F 33.1 °F 29.90 in Calm     99% 0.00 in 0 W/m2
23:24 33.2 °F 33 °F 29.90 in Calm     99% 0.00 in 0 W/m2
23:29 33.1 °F 32.9 °F 29.90 in NNE 0.1 mph 2 mph 99% 0.00 in 0 W/m2
23:34 33.1 °F 32.8 °F 29.89 in NNE 0.4 mph 2 mph 99% 0.00 in 0 W/m2
23:39 32.9 °F 32.7 °F 29.89 in Calm     99% 0.00 in 0 W/m2
23:44 32.8 °F 32.6 °F 29.89 in NE 0.5 mph 2 mph 99% 0.00 in 0 W/m2
23:49 32.7 °F 32.5 °F 29.89 in NNE 0.5 mph 2 mph 99% 0.00 in 0 W/m2
23:54 32.6 °F 32.3 °F 29.89 in NE 0.2 mph 1 mph 99% 0.00 in 0 W/m2
23:59 32.5 °F 32.3 °F 29.89 in NNE 0.3 mph 1 mph 99.3% 0.00 in 0 W/m2
Lisbon, New Hampshire, USA
Compliments of Weather Underground - 4 mb